Time;durP1;ratioP1;P1;durP2;ratioP2;P2;SDS_P1;SDS_P2;PMS_P1;PMS_P2;Temp;Humidity;BMP_temperature;BMP_pressure;BME280_temperature;BME280_humidity;BME280_pressure;Samples;Min_cycle;Max_cycle;Signal;HPM_P1;HPM_P2
2022/09/23 00:00:42;;;;;;;5.50;1.40;;;17.40;52.20;;;;;;4977565;28;20046;-74
2022/09/23 00:03:08;;;;;;;5.78;1.40;;;17.40;52.10;;;;;;4960029;28;20488;-73
2022/09/23 00:05:36;;;;;;;2.88;1.20;;;17.50;52.20;;;;;;4977021;28;20085;-73
2022/09/23 00:08:03;;;;;;;5.75;1.58;;;17.50;52.40;;;;;;4977333;28;20058;-72
2022/09/23 00:10:32;;;;;;;7.03;1.60;;;17.50;52.60;;;;;;4977339;28;20023;-72
2022/09/23 00:12:58;;;;;;;4.25;1.27;;;17.40;52.40;;;;;;4977265;28;20081;-72
2022/09/23 00:15:25;;;;;;;3.03;1.08;;;17.40;52.60;;;;;;4977266;28;20125;-72
2022/09/23 00:17:53;;;;;;;2.30;1.10;;;17.40;52.30;;;;;;4977168;28;20019;-72
2022/09/23 00:20:19;;;;;;;3.03;1.40;;;17.40;52.10;;;;;;4977155;28;20034;-72
2022/09/23 00:22:45;;;;;;;4.35;1.55;;;17.40;52.10;;;;;;4976976;28;20461;-73
2022/09/23 00:25:11;;;;;;;2.85;1.10;;;17.30;52.00;;;;;;4976897;28;20484;-73
2022/09/23 00:27:38;;;;;;;2.85;1.20;;;17.30;52.00;;;;;;4977114;28;20019;-73
2022/09/23 00:30:06;;;;;;;4.07;1.30;;;17.30;52.00;;;;;;4976782;28;20061;-73
2022/09/23 00:32:32;;;;;;;2.63;1.08;;;17.30;52.10;;;;;;4976922;28;20058;-73
2022/09/23 00:34:58;;;;;;;3.50;1.20;;;17.30;52.00;;;;;;4976454;28;20039;-73
2022/09/23 00:37:23;;;;;;;3.35;1.40;;;17.30;52.00;;;;;;4976757;28;20315;-74
2022/09/23 00:39:49;;;;;;;4.70;1.10;;;17.20;51.90;;;;;;4976668;28;20089;-73
2022/09/23 00:42:19;;;;;;;6.15;1.33;;;17.20;51.90;;;;;;4976834;28;20476;-72
2022/09/23 00:44:57;;;;;;;5.03;1.55;;;17.10;51.90;;;;;;4976551;28;20455;-74
2022/09/23 00:47:39;;;;;;;3.38;1.45;;;17.10;52.00;;;;;;4976573;28;20040;-73
2022/09/23 00:50:25;;;;;;;4.15;1.33;;;17.10;52.40;;;;;;4976707;28;20050;-74
2022/09/23 00:52:55;;;;;;;3.85;1.40;;;17.10;52.50;;;;;;4959190;28;20054;-74
2022/09/23 00:55:39;;;;;;;3.85;1.10;;;17.10;52.20;;;;;;4976152;28;20489;-74
2022/09/23 00:58:08;;;;;;;4.07;1.20;;;17.10;51.90;;;;;;4976531;28;20029;-74
2022/09/23 01:00:34;;;;;;;3.13;1.42;;;17.00;52.10;;;;;;4976350;28;20147;-73
2022/09/23 01:03:00;;;;;;;3.25;1.20;;;17.00;52.00;;;;;;4959082;28;20034;-73
2022/09/23 01:05:26;;;;;;;3.05;1.13;;;16.90;52.10;;;;;;4976330;28;20033;-74
2022/09/23 01:07:56;;;;;;;5.65;1.52;;;17.00;52.60;;;;;;4976117;28;20047;-73
2022/09/23 01:10:23;;;;;;;3.22;1.10;;;17.00;52.30;;;;;;4976095;28;20118;-72
2022/09/23 01:13:25;;;;;;;5.10;1.48;;;17.00;52.30;;;;;;4976190;28;20031;-72
2022/09/23 01:16:26;;;;;;;4.55;1.10;;;16.90;52.10;;;;;;4955246;28;20069;-73
2022/09/23 01:19:23;;;;;;;3.42;1.38;;;16.80;52.10;;;;;;4973918;28;20035;-74
2022/09/23 01:22:16;;;;;;;4.10;1.13;;;16.70;52.10;;;;;;4975935;28;20383;-74
2022/09/23 01:25:19;;;;;;;2.75;1.13;;;16.60;52.50;;;;;;4975970;28;20033;-74
2022/09/23 01:28:36;;;;;;;2.78;1.33;;;16.60;52.60;;;;;;4975727;28;20369;-76
2022/09/23 01:31:11;;;;;;;2.65;1.30;;;16.50;52.60;;;;;;4966884;28;20030;-73
2022/09/23 01:33:41;;;;;;;4.80;1.30;;;16.50;52.80;;;;;;4975779;28;20042;-75
2022/09/23 01:36:17;;;;;;;4.10;1.40;;;16.50;52.50;;;;;;4975771;28;20046;-77
2022/09/23 01:38:46;;;;;;;3.40;1.20;;;16.50;52.60;;;;;;4975723;28;20051;-74
2022/09/23 01:41:35;;;;;;;5.45;1.40;;;16.50;52.70;;;;;;4958326;28;20110;-74
2022/09/23 01:44:09;;;;;;;3.40;1.20;;;16.50;52.80;;;;;;4975440;28;20567;-75
2022/09/23 01:46:49;;;;;;;6.53;1.52;;;16.50;52.70;;;;;;4975619;28;20062;-73
2022/09/23 01:49:21;;;;;;;4.65;1.58;;;16.40;52.70;;;;;;4975659;28;20023;-75
2022/09/23 01:52:28;;;;;;;3.05;1.20;;;16.30;52.70;;;;;;4975566;28;20033;-74
2022/09/23 01:55:07;;;;;;;2.83;1.48;;;16.20;53.50;;;;;;4957137;28;20051;-74
2022/09/23 01:57:39;;;;;;;2.13;0.98;;;16.20;52.90;;;;;;4978317;28;20114;-75
2022/09/23 02:00:14;;;;;;;4.15;1.30;;;16.20;53.10;;;;;;4977415;28;20105;-74
2022/09/23 02:03:13;;;;;;;3.67;1.45;;;16.10;53.60;;;;;;4976218;28;20390;-72
2022/09/23 02:05:49;;;;;;;5.93;1.90;;;16.10;53.40;;;;;;4975127;28;20455;-74
2022/09/23 02:08:30;;;;;;;7.57;2.75;;;16.10;53.40;;;;;;4972849;28;20129;-72
2022/09/23 02:11:03;;;;;;;6.10;3.40;;;16.10;53.40;;;;;;4975083;28;20030;-73
2022/09/23 02:13:44;;;;;;;7.85;4.00;;;16.10;53.00;;;;;;4974997;28;20037;-74
2022/09/23 02:16:24;;;;;;;10.60;4.35;;;16.00;52.90;;;;;;4975039;28;20092;-74
2022/09/23 02:19:05;;;;;;;6.95;3.53;;;16.00;52.90;;;;;;4974686;28;20114;-74
2022/09/23 02:21:39;;;;;;;8.15;2.80;;;16.00;53.50;;;;;;4974898;28;20066;-75
2022/09/23 02:24:12;;;;;;;7.53;2.67;;;16.00;53.30;;;;;;4973768;28;20439;-75
2022/09/23 02:27:05;;;;;;;5.55;2.28;;;16.00;53.40;;;;;;4974854;28;20380;-77
2022/09/23 02:29:48;;;;;;;5.43;1.75;;;15.90;53.50;;;;;;4974752;28;20118;-76
2022/09/23 02:32:27;;;;;;;5.30;1.70;;;15.90;53.40;;;;;;4974590;28;20023;-72
2022/09/23 02:35:10;;;;;;;5.22;1.67;;;15.90;53.40;;;;;;4974443;28;20035;-74
2022/09/23 02:37:51;;;;;;;3.15;1.30;;;16.00;53.80;;;;;;4974806;28;20022;-73
2022/09/23 02:40:26;;;;;;;3.58;1.45;;;16.00;53.80;;;;;;4974726;28;20090;-73
2022/09/23 02:43:18;;;;;;;3.05;1.50;;;15.90;53.50;;;;;;4974676;28;20033;-73
2022/09/23 02:45:47;;;;;;;4.75;1.60;;;15.90;53.90;;;;;;4974185;28;20038;-74
2022/09/23 02:48:20;;;;;;;5.85;1.60;;;15.90;53.30;;;;;;4974330;28;20432;-72
2022/09/23 02:50:46;;;;;;;3.05;1.13;;;15.80;53.90;;;;;;4974136;28;20023;-72
2022/09/23 02:53:14;;;;;;;1.83;1.10;;;15.70;53.50;;;;;;4973018;28;20126;-73
2022/09/23 02:55:41;;;;;;;2.88;1.17;;;15.70;53.70;;;;;;4974215;28;20117;-72
2022/09/23 02:58:07;;;;;;;6.43;1.30;;;15.70;53.80;;;;;;4974489;28;20072;-75
2022/09/23 03:01:17;;;;;;;3.10;1.27;;;15.60;53.60;;;;;;4974384;28;20027;-73
2022/09/23 03:03:52;;;;;;;4.68;1.10;;;15.60;54.10;;;;;;4974068;28;20373;-73
2022/09/23 03:06:38;;;;;;;2.95;1.20;;;15.50;54.30;;;;;;4972414;28;20076;-74
2022/09/23 03:09:10;;;;;;;3.78;1.30;;;15.50;54.50;;;;;;4974147;28;20033;-72
2022/09/23 03:11:39;;;;;;;5.45;1.30;;;15.50;53.80;;;;;;4974452;28;20077;-73
2022/09/23 03:14:31;;;;;;;2.13;1.20;;;15.50;53.80;;;;;;4974021;28;20039;-73
2022/09/23 03:17:02;;;;;;;3.80;1.60;;;15.60;54.50;;;;;;4974355;28;20438;-73
2022/09/23 03:19:32;;;;;;;4.63;1.80;;;15.60;53.90;;;;;;4973906;28;20041;-73
2022/09/23 03:22:10;;;;;;;2.03;1.02;;;15.60;53.70;;;;;;4974180;28;20070;-73
2022/09/23 03:24:38;;;;;;;3.13;1.20;;;15.60;53.60;;;;;;4974140;28;20035;-72
2022/09/23 03:27:12;;;;;;;3.33;1.05;;;15.50;53.70;;;;;;4974095;28;20034;-72
2022/09/23 03:29:39;;;;;;;;;;;15.50;54.40;;;;;;4974530;28;20077;-72
2022/09/23 03:32:07;;;;;;;4.03;1.45;;;15.40;54.10;;;;;;4973919;28;19906;-74
2022/09/23 03:34:35;;;;;;;3.35;1.33;;;15.40;54.00;;;;;;4973914;28;20039;-73
2022/09/23 03:37:18;;;;;;;4.63;1.15;;;15.40;53.90;;;;;;4973843;28;20410;-72
2022/09/23 03:39:58;;;;;;;3.45;1.13;;;15.40;54.50;;;;;;4973705;28;20034;-73
2022/09/23 03:42:29;;;;;;;2.78;1.20;;;15.30;54.60;;;;;;4973719;28;20027;-72
2022/09/23 03:44:56;;;;;;;2.78;1.25;;;15.30;54.10;;;;;;4956373;28;20476;-72
2022/09/23 03:47:24;;;;;;;5.80;1.77;;;15.30;54.30;;;;;;4973756;28;20062;-73
2022/09/23 03:49:51;;;;;;;4.20;1.73;;;15.20;54.20;;;;;;4973716;28;20027;-73
2022/09/23 03:52:21;;;;;;;2.95;1.13;;;15.20;54.40;;;;;;4973642;28;20504;-73
2022/09/23 03:54:47;;;;;;;2.65;1.23;;;15.10;54.30;;;;;;4973467;28;20326;-72
2022/09/23 03:57:13;;;;;;;3.17;1.60;;;15.20;54.70;;;;;;4973920;28;20033;-72
2022/09/23 03:59:39;;;;;;;5.35;1.50;;;15.10;54.40;;;;;;4973665;28;20039;-73
2022/09/23 04:02:06;;;;;;;4.85;1.52;;;15.10;54.50;;;;;;4973589;28;20034;-74
2022/09/23 04:04:36;;;;;;;3.50;1.25;;;15.10;54.20;;;;;;4973375;28;20030;-72
2022/09/23 04:07:02;;;;;;;2.20;1.20;;;15.10;54.40;;;;;;4973378;28;20073;-74
2022/09/23 04:09:28;;;;;;;3.92;1.20;;;15.10;54.80;;;;;;4973706;28;20354;-75
2022/09/23 04:11:54;;;;;;;3.50;1.30;;;15.20;54.60;;;;;;4973813;28;20488;-73
2022/09/23 04:14:21;;;;;;;4.05;1.90;;;15.20;54.30;;;;;;4973548;28;20107;-73
2022/09/23 04:16:47;;;;;;;3.80;1.35;;;15.20;54.40;;;;;;4975694;28;20034;-73
2022/09/23 04:19:14;;;;;;;2.53;1.40;;;15.20;54.20;;;;;;4977053;28;20058;-74
2022/09/23 04:21:41;;;;;;;3.95;1.40;;;15.20;54.30;;;;;;4959753;28;20536;-73
2022/09/23 04:24:07;;;;;;;4.28;1.42;;;15.20;54.20;;;;;;4976844;28;20100;-71
2022/09/23 04:26:33;;;;;;;4.40;1.20;;;15.20;54.10;;;;;;4976956;28;20069;-72
2022/09/23 04:28:59;;;;;;;5.32;1.40;;;15.10;54.30;;;;;;4976865;28;20015;-74
2022/09/23 04:31:25;;;;;;;3.22;1.52;;;15.10;54.30;;;;;;4976803;28;20073;-73
2022/09/23 04:33:54;;;;;;;2.80;1.42;;;15.10;54.50;;;;;;4976668;28;20385;-73
2022/09/23 04:36:20;;;;;;;5.88;1.30;;;15.20;54.30;;;;;;4976682;28;20030;-73
2022/09/23 04:38:48;;;;;;;5.00;1.60;;;15.00;54.10;;;;;;4976851;28;20023;-73
2022/09/23 04:41:14;;;;;;;3.22;1.30;;;14.90;54.20;;;;;;4976730;28;20058;-73
2022/09/23 04:43:41;;;;;;;3.03;1.05;;;15.00;54.50;;;;;;4976565;28;20082;-72
2022/09/23 04:46:08;;;;;;;3.17;1.50;;;14.90;54.30;;;;;;4976357;28;20038;-72
2022/09/23 04:48:36;;;;;;;2.92;1.20;;;15.00;54.40;;;;;;4976390;28;20102;-72
2022/09/23 04:51:21;;;;;;;2.83;1.20;;;15.00;54.20;;;;;;4976481;28;20043;-74
2022/09/23 04:53:48;;;;;;;3.80;1.60;;;14.90;55.10;;;;;;4976224;28;20038;-72
2022/09/23 04:56:17;;;;;;;3.65;1.10;;;14.90;54.30;;;;;;4976266;28;20086;-72
2022/09/23 04:58:44;;;;;;;2.28;1.20;;;14.90;54.40;;;;;;4976305;28;20388;-73
2022/09/23 05:01:13;;;;;;;5.75;1.50;;;14.80;54.50;;;;;;4976201;28;20038;-72
2022/09/23 05:03:39;;;;;;;5.85;1.48;;;14.80;54.50;;;;;;4975963;28;20086;-74
2022/09/23 05:06:06;;;;;;;3.60;1.40;;;14.70;54.40;;;;;;4976345;28;20019;-75
2022/09/23 05:08:33;;;;;;;4.85;1.35;;;14.60;54.80;;;;;;4959051;28;20066;-73
2022/09/23 05:11:00;;;;;;;6.82;3.00;;;14.60;54.60;;;;;;4976159;28;20037;-64
2022/09/23 05:13:26;;;;;;;3.80;1.30;;;14.60;54.60;;;;;;4976021;28;20019;-66
2022/09/23 05:16:06;;;;;;;4.00;1.50;;;14.60;54.90;;;;;;4981109;28;20037;-65
2022/09/23 05:18:41;;;;;;;2.65;1.30;;;14.60;54.90;;;;;;4976180;28;20027;-65
2022/09/23 05:21:11;;;;;;;5.15;1.50;;;14.50;54.70;;;;;;4976101;28;20034;-66
2022/09/23 05:23:37;;;;;;;5.28;1.20;;;14.60;55.10;;;;;;4975904;28;20114;-63
2022/09/23 05:26:07;;;;;;;6.00;1.77;;;14.60;54.80;;;;;;4980706;28;20026;-65
2022/09/23 05:28:34;;;;;;;5.03;1.60;;;14.50;54.90;;;;;;4979845;28;20507;-64
2022/09/23 05:31:14;;;;;;;4.15;1.30;;;14.60;55.10;;;;;;4976057;28;20031;-64
2022/09/23 05:33:45;;;;;;;2.97;1.35;;;14.50;54.90;;;;;;4966080;28;20080;-66
2022/09/23 05:36:12;;;;;;;3.53;1.50;;;14.60;55.20;;;;;;4982246;28;20042;-64
2022/09/23 05:38:38;;;;;;;6.28;1.30;;;14.60;54.80;;;;;;4958460;28;20042;-66
2022/09/23 05:41:06;;;;;;;2.42;1.30;;;14.60;55.10;;;;;;4987370;28;20117;-64
2022/09/23 05:43:32;;;;;;;4.40;1.60;;;14.60;54.90;;;;;;4988393;28;20504;-66
2022/09/23 05:46:05;;;;;;;4.80;1.50;;;14.60;55.10;;;;;;4975034;28;20034;-70
2022/09/23 05:48:34;;;;;;;11.57;1.67;;;14.60;55.00;;;;;;4976638;28;20039;-67
2022/09/23 05:51:03;;;;;;;3.38;1.50;;;14.70;55.90;;;;;;4986437;28;20018;-67
2022/09/23 05:53:33;;;;;;;3.00;1.40;;;14.90;56.00;;;;;;4994480;28;20033;-67
2022/09/23 05:56:00;;;;;;;3.47;1.30;;;15.00;54.90;;;;;;4994512;28;20053;-66
2022/09/23 05:58:26;;;;;;;6.28;1.33;;;15.10;54.90;;;;;;4994909;28;20153;-67
2022/09/23 06:00:57;;;;;;;5.57;1.50;;;15.30;54.60;;;;;;4994630;28;20034;-71
2022/09/23 06:03:25;;;;;;;5.15;1.55;;;15.50;55.30;;;;;;4994472;28;20030;-66
2022/09/23 06:05:55;;;;;;;5.30;1.30;;;15.60;53.90;;;;;;4994433;28;20049;-68
2022/09/23 06:08:21;;;;;;;5.22;1.55;;;15.80;53.60;;;;;;4994405;28;20046;-66
2022/09/23 06:10:50;;;;;;;3.22;1.45;;;16.00;53.80;;;;;;4976980;28;20476;-66
2022/09/23 06:13:16;;;;;;;3.00;1.40;;;16.20;53.90;;;;;;4994320;28;20045;-67
2022/09/23 06:15:44;;;;;;;5.53;1.55;;;16.30;53.30;;;;;;4976692;28;20034;-68
2022/09/23 06:18:11;;;;;;;7.75;2.08;;;16.40;53.40;;;;;;4994263;28;20066;-66
2022/09/23 06:20:39;;;;;;;4.55;1.90;;;16.60;53.00;;;;;;4994294;28;20395;-67
2022/09/23 06:23:10;;;;;;;4.88;1.80;;;16.70;53.00;;;;;;4972545;28;20034;-74
2022/09/23 06:25:37;;;;;;;10.40;1.75;;;16.90;52.90;;;;;;4974067;28;20064;-70
2022/09/23 06:28:03;;;;;;;8.52;1.95;;;17.00;52.50;;;;;;4974328;28;20035;-66
2022/09/23 06:30:29;;;;;;;6.53;1.98;;;17.20;52.30;;;;;;4974591;28;20022;-69
2022/09/23 06:32:58;;;;;;;5.75;1.67;;;17.30;52.10;;;;;;4974367;28;20019;-67
2022/09/23 06:35:26;;;;;;;15.70;1.88;;;17.40;51.90;;;;;;4974547;28;20030;-69
2022/09/23 06:37:53;;;;;;;6.50;1.42;;;17.50;51.80;;;;;;4957484;28;20033;-67
2022/09/23 06:40:21;;;;;;;5.85;1.67;;;17.50;51.40;;;;;;4974318;28;20338;-67
2022/09/23 06:42:56;;;;;;;7.68;1.83;;;17.50;51.60;;;;;;4988527;28;20031;-69
2022/09/23 06:45:24;;;;;;;5.68;1.83;;;17.60;51.80;;;;;;4993534;28;20054;-73
2022/09/23 06:47:55;;;;;;;7.70;1.95;;;17.80;51.50;;;;;;4994025;28;20054;-70
2022/09/23 06:50:25;;;;;;;4.88;1.30;;;17.90;51.00;;;;;;4993864;28;20415;-67
2022/09/23 06:52:55;;;;;;;6.03;1.48;;;17.80;51.20;;;;;;4993826;28;20109;-71
2022/09/23 06:55:26;;;;;;;8.68;1.80;;;17.90;51.20;;;;;;4976460;28;20050;-68
2022/09/23 06:57:53;;;;;;;10.63;2.00;;;17.90;51.30;;;;;;4993581;28;20468;-74
2022/09/23 07:00:19;;;;;;;6.47;1.70;;;17.90;51.50;;;;;;4976240;28;20042;-69
2022/09/23 07:02:46;;;;;;;7.90;2.08;;;18.10;51.30;;;;;;4993685;28;20025;-74
2022/09/23 07:05:13;;;;;;;7.88;1.77;;;18.30;51.30;;;;;;4993672;28;20085;-72
2022/09/23 07:07:40;;;;;;;5.55;1.35;;;18.30;50.80;;;;;;4986635;28;20504;-76
2022/09/23 07:10:06;;;;;;;10.40;1.92;;;18.40;50.80;;;;;;4992720;28;20419;-72
2022/09/23 07:12:32;;;;;;;7.60;1.70;;;18.40;50.60;;;;;;4994119;28;20018;-73
2022/09/23 07:14:58;;;;;;;6.47;1.80;;;18.50;50.60;;;;;;4994989;28;20533;-68
2022/09/23 07:17:25;;;;;;;4.70;1.50;;;18.50;50.50;;;;;;4994924;28;20054;-71
2022/09/23 07:19:51;;;;;;;5.32;1.80;;;18.60;50.60;;;;;;4996427;28;20110;-71
2022/09/23 07:22:21;;;;;;;6.45;1.80;;;18.70;50.60;;;;;;4994716;28;20062;-71
2022/09/23 07:24:46;;;;;;;4.35;1.60;;;18.70;50.80;;;;;;4994426;28;20467;-68
2022/09/23 07:27:15;;;;;;;6.03;1.88;;;18.70;50.20;;;;;;4993695;28;20060;-69
2022/09/23 07:29:42;;;;;;;7.70;2.08;;;18.70;50.40;;;;;;4993749;28;20022;-72
2022/09/23 07:32:08;;;;;;;6.57;2.00;;;18.80;50.50;;;;;;4993736;28;20491;-75
2022/09/23 07:34:34;;;;;;;8.07;2.15;;;18.80;50.30;;;;;;4993386;28;20041;-70
2022/09/23 07:37:01;;;;;;;6.78;1.60;;;18.70;49.90;;;;;;4993380;28;20030;-77
2022/09/23 07:39:27;;;;;;;8.38;2.10;;;18.80;49.90;;;;;;4993790;28;20050;-74
2022/09/23 07:41:53;;;;;;;5.30;1.70;;;18.80;49.90;;;;;;4993925;28;20069;-70
2022/09/23 07:44:20;;;;;;;6.72;1.58;;;18.90;49.90;;;;;;4994861;28;20046;-72
2022/09/23 07:46:48;;;;;;;5.38;1.33;;;18.90;49.90;;;;;;4995561;28;20018;-68
2022/09/23 07:49:14;;;;;;;8.02;1.73;;;18.80;49.70;;;;;;4994974;28;20034;-69
2022/09/23 07:51:44;;;;;;;5.38;1.55;;;18.80;49.60;;;;;;4996362;28;20092;-70
2022/09/23 07:54:12;;;;;;;6.25;1.70;;;18.80;50.00;;;;;;4997645;28;20116;-71
2022/09/23 07:56:39;;;;;;;7.85;2.05;;;18.80;49.80;;;;;;4998752;28;20046;-69
2022/09/23 07:59:07;;;;;;;4.55;1.80;;;18.80;49.90;;;;;;4998668;28;20026;-71
2022/09/23 08:01:36;;;;;;;5.43;1.48;;;18.80;50.00;;;;;;4999399;28;20096;-71
2022/09/23 08:04:11;;;;;;;10.13;2.00;;;18.80;49.90;;;;;;4998624;28;20504;-69
2022/09/23 08:06:47;;;;;;;6.40;1.60;;;18.70;48.80;;;;;;4997153;28;20054;-70
2022/09/23 08:09:16;;;;;;;7.22;1.80;;;18.80;49.90;;;;;;4997248;28;20080;-71
2022/09/23 08:11:42;;;;;;;13.38;1.80;;;18.70;50.10;;;;;;4997004;28;20038;-76
2022/09/23 08:14:12;;;;;;;11.13;1.40;;;18.80;50.30;;;;;;4979324;28;20046;-68
2022/09/23 08:16:39;;;;;;;12.85;2.08;;;18.80;50.70;;;;;;4996711;28;20030;-69
2022/09/23 08:19:06;;;;;;;8.82;1.80;;;18.80;50.00;;;;;;4996736;28;20162;-75
2022/09/23 08:21:31;;;;;;;5.68;1.80;;;18.80;50.00;;;;;;4996748;28;20049;-72
2022/09/23 08:23:58;;;;;;;3.83;1.42;;;18.90;50.00;;;;;;4996669;28;20456;-72
2022/09/23 08:26:23;;;;;;;6.50;1.48;;;18.80;50.00;;;;;;4996664;28;20038;-73
2022/09/23 08:28:53;;;;;;;7.03;1.60;;;18.90;50.20;;;;;;4997303;28;20061;-66
2022/09/23 08:31:21;;;;;;;8.80;1.63;;;18.90;50.20;;;;;;4996802;28;20192;-73
2022/09/23 08:33:47;;;;;;;4.57;1.40;;;18.90;50.20;;;;;;4996740;28;20033;-70
2022/09/23 08:36:13;;;;;;;12.55;2.05;;;18.90;49.60;;;;;;4996946;28;20688;-69
2022/09/23 08:38:39;;;;;;;5.10;1.73;;;18.90;49.70;;;;;;4998027;28;20088;-77
2022/09/23 08:41:41;;;;;;;3.65;1.30;;;19.00;49.90;;;;;;4997272;28;20471;-77
2022/09/23 08:44:32;;;;;;;3.53;1.50;;;19.00;48.50;;;;;;4996688;28;20022;-70
2022/09/23 08:47:15;;;;;;;5.47;1.73;;;19.00;48.40;;;;;;4996375;28;20022;-68
2022/09/23 08:50:06;;;;;;;6.32;1.50;;;19.10;48.50;;;;;;4996664;28;20095;-70
2022/09/23 08:52:34;;;;;;;23.63;13.35;;;19.10;48.40;;;;;;4995993;28;20442;-71
2022/09/23 08:55:02;;;;;;;7.75;3.38;;;19.20;50.00;;;;;;4996037;28;20471;-70
2022/09/23 08:58:07;;;;;;;11.00;2.00;;;19.20;49.90;;;;;;4996004;28;20026;-69
2022/09/23 09:00:41;;;;;;;4.97;1.77;;;19.30;48.30;;;;;;4996026;28;20049;-70
2022/09/23 09:03:19;;;;;;;9.13;1.95;;;19.30;49.70;;;;;;4995678;28;20042;-67
2022/09/23 09:05:46;;;;;;;6.38;2.47;;;19.40;49.50;;;;;;4995868;28;20521;-69
2022/09/23 09:08:12;;;;;;;9.60;2.17;;;19.40;49.50;;;;;;4990753;28;20069;-69
2022/09/23 09:10:46;;;;;;;6.18;2.40;;;19.50;49.50;;;;;;4995926;28;20034;-69
2022/09/23 09:13:34;;;;;;;12.05;2.63;;;19.60;48.40;;;;;;4995656;28;20022;-69
2022/09/23 09:16:38;;;;;;;7.00;2.15;;;19.70;48.70;;;;;;4994178;28;20042;-72
2022/09/23 09:19:15;;;;;;;5.43;2.10;;;19.80;48.40;;;;;;4995806;28;20018;-72
2022/09/23 09:21:45;;;;;;;9.70;1.83;;;19.90;48.00;;;;;;4994193;28;20035;-73
2022/09/23 09:24:28;;;;;;;9.98;1.63;;;20.00;49.10;;;;;;4995480;28;20077;-72
2022/09/23 09:26:54;;;;;;;6.40;1.90;;;20.10;47.50;;;;;;4995209;28;20049;-70
2022/09/23 09:29:26;;;;;;;7.45;1.77;;;20.20;48.90;;;;;;4995411;28;20023;-68
2022/09/23 09:31:51;;;;;;;3.40;1.50;;;20.30;48.30;;;;;;4995225;28;20027;-68
2022/09/23 09:34:23;;;;;;;18.48;9.40;;;20.40;48.40;;;;;;4994977;28;20033;-77
2022/09/23 09:37:24;;;;;;;5.65;2.97;;;20.40;47.20;;;;;;4995092;28;20034;-72
2022/09/23 09:39:50;;;;;;;5.70;1.95;;;20.50;46.80;;;;;;4993427;28;20038;-68
2022/09/23 09:42:25;;;;;;;7.20;1.90;;;20.50;47.80;;;;;;4995152;28;20023;-73
2022/09/23 09:44:57;;;;;;;6.53;1.80;;;20.60;47.80;;;;;;4995251;28;20384;-69
2022/09/23 09:47:45;;;;;;;3.95;1.80;;;20.70;47.60;;;;;;4996756;28;20208;-68
2022/09/23 09:50:37;;;;;;;5.88;1.70;;;20.80;46.10;;;;;;4996766;28;20038;-68
2022/09/23 09:53:30;;;;;;;4.38;1.38;;;20.90;45.90;;;;;;4996653;28;20165;-68
2022/09/23 09:56:10;;;;;;;5.30;1.40;;;21.00;45.50;;;;;;4994444;28;20042;-69
2022/09/23 09:58:48;;;;;;;4.95;1.38;;;21.10;45.50;;;;;;4995200;28;20495;-67
2022/09/23 10:01:36;;;;;;;3.63;1.45;;;21.10;46.20;;;;;;4994928;28;20080;-68
2022/09/23 10:04:05;;;;;;;4.20;1.55;;;21.10;46.10;;;;;;4994057;28;20423;-70
2022/09/23 10:06:35;;;;;;;4.97;1.42;;;21.20;45.60;;;;;;4994162;28;20110;-68
2022/09/23 10:09:12;;;;;;;4.50;1.75;;;21.30;44.90;;;;;;4994234;28;20030;-68
2022/09/23 10:11:39;;;;;;;3.95;1.40;;;21.30;45.50;;;;;;4994099;28;20031;-69
2022/09/23 10:14:16;;;;;;;3.38;1.30;;;21.40;45.10;;;;;;4992892;28;20058;-69
2022/09/23 10:16:43;;;;;;;3.72;1.25;;;21.50;43.10;;;;;;4993885;28;20034;-69
2022/09/23 10:19:22;;;;;;;4.88;1.88;;;21.50;44.20;;;;;;4993284;28;20105;-70
2022/09/23 10:21:59;;;;;;;8.80;1.77;;;21.60;42.90;;;;;;4993746;28;20022;-69
2022/09/23 10:24:42;;;;;;;5.25;1.55;;;21.70;43.30;;;;;;4993510;28;20030;-68
2022/09/23 10:27:13;;;;;;;5.18;1.70;;;21.80;43.20;;;;;;4961103;28;20026;-69
2022/09/23 10:29:49;;;;;;;3.05;1.30;;;21.90;42.50;;;;;;4993778;28;20033;-69
2022/09/23 10:32:22;;;;;;;6.35;1.45;;;22.00;41.30;;;;;;4976285;28;20046;-69
2022/09/23 10:34:53;;;;;;;7.60;1.57;;;22.20;42.40;;;;;;4993377;28;20046;-72
2022/09/23 10:37:37;;;;;;;6.93;1.30;;;22.20;41.90;;;;;;4993870;28;20034;-68
2022/09/23 10:49:22;;;;;;;4.68;1.08;;;22.60;40.60;;;;;;4994004;28;20050;-69
2022/09/23 10:52:13;;;;;;;3.08;1.10;;;22.60;39.60;;;;;;4993106;28;20046;-70
2022/09/23 10:55:16;;;;;;;6.55;2.45;;;22.70;39.90;;;;;;4975972;28;20034;-68
2022/09/23 10:57:45;;;;;;;3.87;1.60;;;22.80;39.80;;;;;;4981514;28;20069;-68
2022/09/23 11:00:31;;;;;;;5.63;1.73;;;22.90;39.80;;;;;;4993333;28;20034;-68
2022/09/23 11:03:08;;;;;;;4.43;1.30;;;23.10;39.50;;;;;;4993042;28;20125;-70
2022/09/23 11:05:51;;;;;;;3.55;1.40;;;23.20;39.30;;;;;;4993076;28;20054;-69
2022/09/23 11:08:28;;;;;;;6.97;1.30;;;23.20;40.00;;;;;;4992900;28;20412;-68
2022/09/23 11:11:40;;;;;;;8.80;1.92;;;23.30;38.60;;;;;;4992947;28;20046;-67
2022/09/23 11:14:40;;;;;;;6.78;1.98;;;23.50;38.20;;;;;;4993379;28;20050;-70
2022/09/23 11:17:13;;;;;;;5.60;1.55;;;23.50;37.20;;;;;;4993130;28;20041;-68
2022/09/23 11:20:00;;;;;;;5.72;1.42;;;23.60;36.70;;;;;;4992917;28;20499;-69
2022/09/23 11:22:31;;;;;;;7.35;1.10;;;23.50;35.90;;;;;;4993133;28;20033;-68
2022/09/23 11:25:46;;;;;;;6.13;1.35;;;23.60;36.90;;;;;;4992882;28;20058;-70
2022/09/23 11:28:49;;;;;;;9.15;1.38;;;23.60;36.00;;;;;;4974533;28;20050;-68
2022/09/23 11:31:24;;;;;;;3.33;1.10;;;23.80;36.30;;;;;;4996819;28;20443;-72
2022/09/23 11:34:02;;;;;;;3.20;1.17;;;23.80;34.00;;;;;;4997396;28;20058;-68
2022/09/23 11:36:36;;;;;;;3.05;1.40;;;23.80;34.40;;;;;;4997427;28;20039;-69
2022/09/23 11:39:28;;;;;;;4.50;1.30;;;23.90;34.40;;;;;;4997445;28;20030;-70
2022/09/23 11:42:00;;;;;;;4.00;1.30;;;24.00;33.50;;;;;;4997413;28;20391;-68
2022/09/23 11:44:38;;;;;;;5.78;1.60;;;24.00;33.40;;;;;;4979739;28;20406;-67
2022/09/23 11:47:07;;;;;;;4.30;1.20;;;24.10;33.40;;;;;;4997061;28;20471;-69
2022/09/23 11:50:14;;;;;;;7.38;1.20;;;24.10;31.80;;;;;;4996797;28;20034;-71
2022/09/23 11:52:44;;;;;;;3.92;1.27;;;24.20;32.00;;;;;;4986571;28;20118;-69
2022/09/23 11:55:21;;;;;;;4.68;1.38;;;24.10;33.90;;;;;;4996788;28;20534;-71
2022/09/23 11:58:13;;;;;;;11.85;1.48;;;24.20;34.20;;;;;;4997188;28;20027;-69
2022/09/23 12:00:48;;;;;;;3.42;1.27;;;24.20;33.50;;;;;;4994373;28;20108;-81
2022/09/23 12:03:40;;;;;;;3.55;1.08;;;24.40;33.70;;;;;;4997548;28;20136;-82
2022/09/23 12:06:13;;;;;;;5.13;1.30;;;24.40;33.40;;;;;;4996793;28;20035;-65
2022/09/23 12:08:40;;;;;;;5.43;1.40;;;24.20;34.10;;;;;;4979761;28;20050;-67
2022/09/23 12:11:29;;;;;;;9.55;1.80;;;24.20;33.80;;;;;;4996413;28;20022;-67
2022/09/23 12:14:20;;;;;;;7.13;2.22;;;24.30;33.80;;;;;;4996410;28;20030;-64
2022/09/23 12:17:26;;;;;;;3.53;1.45;;;24.40;34.50;;;;;;4959588;28;20470;-65
2022/09/23 12:20:10;;;;;;;5.65;2.30;;;24.40;33.40;;;;;;4996359;28;20482;-66
2022/09/23 12:22:44;;;;;;;6.72;1.90;;;24.30;34.40;;;;;;4995793;28;20383;-65
2022/09/23 12:25:32;;;;;;;6.53;1.58;;;24.40;35.10;;;;;;4996174;28;20092;-66
2022/09/23 12:28:15;;;;;;;4.18;1.10;;;24.50;34.60;;;;;;4996014;28;20031;-68
2022/09/23 12:30:43;;;;;;;5.95;1.50;;;24.50;34.70;;;;;;4995983;28;20057;-68
2022/09/23 12:33:29;;;;;;;7.82;2.60;;;24.70;34.90;;;;;;4996025;28;20506;-65
2022/09/23 12:36:08;;;;;;;4.40;1.48;;;24.70;35.10;;;;;;4995687;28;20038;-64
2022/09/23 12:38:37;;;;;;;6.30;1.98;;;24.80;35.40;;;;;;4995156;28;20392;-66
2022/09/23 12:41:25;;;;;;;5.78;1.77;;;24.90;35.00;;;;;;4995757;28;20026;-67
2022/09/23 12:44:13;;;;;;;5.35;1.65;;;25.00;34.80;;;;;;4995935;28;20356;-65
2022/09/23 12:46:40;;;;;;;11.82;2.42;;;25.10;34.60;;;;;;4995940;28;20030;-67
2022/09/23 12:49:35;;;;;;;4.30;1.85;;;25.10;35.60;;;;;;4995876;28;20038;-68
2022/09/23 12:52:24;;;;;;;4.75;1.20;;;25.20;37.20;;;;;;4995657;28;20061;-65
2022/09/23 12:54:54;;;;;;;9.05;2.40;;;25.20;36.30;;;;;;4995573;28;20038;-68
2022/09/23 12:57:32;;;;;;;26.70;6.10;;;25.30;37.90;;;;;;4995457;28;20019;-65
2022/09/23 13:00:13;;;;;;;12.35;2.45;;;25.40;37.80;;;;;;4995736;28;20057;-65
2022/09/23 13:02:40;;;;;;;10.32;2.20;;;25.50;37.40;;;;;;4995441;28;20516;-67
2022/09/23 13:08:12;;;;;;;5.68;1.40;;;25.70;36.70;;;;;;4995328;28;20057;-67
2022/09/23 13:10:53;;;;;;;9.95;1.67;;;25.70;37.50;;;;;;4995221;28;20026;-67
2022/09/23 13:13:40;;;;;;;4.57;1.38;;;25.90;37.50;;;;;;4995451;28;20023;-67
2022/09/23 13:16:45;;;;;;;4.30;1.95;;;25.90;37.50;;;;;;4995026;28;20034;-67
2022/09/23 13:19:25;;;;;;;7.45;2.67;;;26.00;36.10;;;;;;4994868;28;20361;-67
2022/09/23 13:22:09;;;;;;;21.13;3.75;;;26.00;37.70;;;;;;4977017;28;20026;-67
2022/09/23 13:24:53;;;;;;;5.55;1.55;;;26.00;37.90;;;;;;4994838;28;20449;-65
2022/09/23 13:27:22;;;;;;;6.10;1.80;;;26.00;36.80;;;;;;4994584;28;20057;-67
2022/09/23 13:30:06;;;;;;;6.70;2.17;;;26.10;37.30;;;;;;4994741;28;20375;-66
2022/09/23 13:32:38;;;;;;;;;;;26.20;36.40;;;;;;4994949;28;20565;-67
2022/09/23 13:35:18;;;;;;;4.40;1.42;;;26.10;35.40;;;;;;4994500;28;20001;-67